DR4W-13 Weather Reports


Display with metric or nautical units.
time (UTC)temp
F
wind
direction
speed
MPH
gust
MPH
rain 1hr
in
rain 24hr
in
rain mn
in
humidity
%
barometer
mb
20220520101516 71 90 3.0 8.0 0.00 0.01 0.00 70 1023.4
20220520101016 71 68 1.0 4.0 0.00 0.01 0.00 70 1023.6
20220520100516 71 68 2.0 4.0 0.00 0.01 0.00 70 1023.5
20220520100016 71 68 2.0 4.0 0.00 0.01 0.00 70 1023.7
20220520095516 70 338 1.0 3.0 0.00 0.01 0.00 70 1023.7
20220520095016 70 68 1.0 3.0 0.00 0.01 0.00 71 1023.9
20220520094517 69 68 2.0 4.0 0.00 0.01 0.00 73 1023.9
20220520094016 69 45 3.0 5.0 0.00 0.01 0.00 73 1024.0
20220520093516 69 293 2.0 3.0 0.00 0.01 0.00 74 1024.0
20220520093036 69 248 1.0 4.0 0.00 0.01 0.00 74 1024.1
20220520092516 68 248 1.0 3.0 0.00 0.01 0.00 73 1024.0
20220520092016 68 293 2.0 5.0 0.00 0.01 0.00 74 1024.3
20220520091516 68 23 1.0 3.0 0.00 0.01 0.00 76 1024.3
20220520091016 68 0.0 1.0 0.00 0.01 0.00 78 1024.4
20220520090516 68 0.0 0.0 0.00 0.01 0.00 77 1024.3
20220520090017 68 23 1.0 4.0 0.00 0.01 0.00 77 1024.3
20220520085536 67 0 1.0 6.0 0.00 0.01 0.00 77 1024.4
20220520085036 67 338 1.0 3.0 0.00 0.01 0.00 78 1024.3
20220520084516 67 315 3.0 5.0 0.00 0.01 0.00 78 1024.3
20220520084017 67 0 2.0 5.0 0.00 0.01 0.00 79 1024.3
20220520083516 66 338 3.0 5.0 0.00 0.01 0.00 78 1024.2
20220520083021 66 0 4.0 6.0 0.00 0.01 0.00 76 1024.3
20220520082516 66 338 3.0 6.0 0.00 0.01 0.00 79 1024.3
20220520082036 66 293 7.0 10.0 0.00 0.01 0.00 77 1024.3
20220520081516 66 293 7.0 11.0 0.00 0.01 0.00 76 1024.3
20220520081016 66 315 4.0 8.0 0.00 0.01 0.00 77 1024.2
20220520080516 67 0 2.0 6.0 0.00 0.01 0.00 78 1024.3
20220520080017 67 23 2.0 4.0 0.00 0.01 0.00 79 1024.4
20220520075516 66 270 1.0 3.0 0.00 0.01 0.00 79 1024.2
20220520075016 65 270 1.0 4.0 0.00 0.01 0.00 79 1024.2
20220520074516 65 203 2.0 5.0 0.00 0.01 0.00 80 1024.2
20220520074015 65 225 3.0 6.0 0.00 0.01 0.00 81 1024.2
20220520073535 64 203 6.0 9.0 0.00 0.01 0.00 80 1024.3
20220520073016 64 203 4.0 7.0 0.00 0.01 0.00 83 1024.4
20220520072515 63 180 5.0 8.0 0.00 0.01 0.00 83 1024.5
20220520072036 63 180 5.0 9.0 0.00 0.01 0.00 83 1024.3
20220520071516 63 180 5.0 10.0 0.00 0.01 0.00 85 1024.5
20220520071036 62 180 4.0 8.0 0.00 0.01 0.00 86 1025.1
20220520070535 62 180 3.0 6.0 0.00 0.01 0.00 87 1025.2
20220520070016 62 135 2.0 4.0 0.00 0.01 0.00 86 1025.1
20220520065535 62 135 2.0 4.0 0.00 0.01 0.00 86 1025.0
20220520065015 62 158 2.0 5.0 0.00 0.01 0.00 87 1025.0
20220520064516 62 135 3.0 7.0 0.00 0.01 0.00 86 1024.9
20220520064035 62 113 3.0 7.0 0.00 0.01 0.00 86 1024.8
20220520063515 61 113 2.0 5.0 0.00 0.01 0.00 87 1024.8
20220520063015 61 90 1.0 3.0 0.00 0.01 0.00 88 1024.9
20220520062516 61 113 2.0 7.0 0.00 0.01 0.00 87 1025.0
20220520062016 61 90 2.0 7.0 0.00 0.01 0.00 87 1025.2
20220520061516 61 135 1.0 3.0 0.00 0.01 0.00 87 1025.1
20220520061015 60 135 1.0 4.0 0.00 0.01 0.00 87 1025.1
20220520060516 60 135 2.0 4.0 0.00 0.01 0.00 87 1025.2
20220520060016 60 135 2.0 5.0 0.00 0.01 0.00 87 1025.3
20220520055515 60 135 2.0 7.0 0.00 0.01 0.00 87 1025.3
20220520055015 59 135 1.0 3.0 0.00 0.01 0.00 89 1025.1
20220520054521 59 135 4.0 9.0 0.00 0.01 0.00 89 1025.1
20220520054015 59 135 7.0 10.0 0.00 0.01 0.00 88 1025.0
20220520053515 59 135 6.0 11.0 0.00 0.01 0.00 89 1024.8
20220520053015 58 135 7.0 12.0 0.00 0.01 0.00 89 1024.8
20220520052515 58 135 7.0 13.0 0.00 0.01 0.00 89 1025.0
20220520052015 58 135 7.0 11.0 0.00 0.01 0.00 89 1025.0
20220520051515 59 113 6.0 10.0 0.00 0.01 0.00 87 1024.9
20220520051015 59 135 4.0 9.0 0.00 0.01 0.00 86 1025.0
20220520050515 59 180 8.0 13.0 0.00 0.01 0.00 86 1025.0
20220520050035 59 180 5.0 10.0 0.00 0.01 0.00 86 1025.1
20220520045541 59 203 4.0 8.0 0.00 0.01 0.00 86 1025.3
20220520045015 59 203 5.0 8.0 0.00 0.01 0.00 86 1025.4
20220520044515 59 203 7.0 11.0 0.00 0.01 0.00 85 1025.4
20220520044035 59 203 6.0 10.0 0.00 0.01 0.00 85 1025.2
20220520043515 59 180 7.0 12.0 0.00 0.01 0.00 85 1025.2
20220520043037 59 180 8.0 12.0 0.00 0.01 0.00 85 1025.0
20220520042535 59 180 7.0 15.0 0.00 0.01 0.00 85 1025.0
20220520042015 59 180 7.0 13.0 0.00 0.01 0.00 85 1024.9
20220520041515 59 180 7.0 10.0 0.00 0.01 0.00 86 1024.9
20220520041055 59 180 7.0 12.0 0.00 0.01 0.00 86 1025.0
20220520040515 59 180 7.0 12.0 0.00 0.01 0.00 86 1024.9
20220520040020 59 180 7.0 12.0 0.00 0.01 0.00 86 1025.0
20220520035515 59 203 7.0 16.0 0.00 0.01 0.00 86 1024.9
20220520035015 59 203 8.0 15.0 0.00 0.01 0.00 86 1024.9
20220520034515 59 203 8.0 13.0 0.00 0.01 0.00 86 1024.9
20220520034017 59 203 9.0 13.0 0.00 0.01 0.00 87 1024.8
20220520033515 59 203 8.0 12.0 0.00 0.01 0.00 87 1024.9
20220520033036 59 203 8.0 15.0 0.00 0.01 0.00 86 1024.9
20220520032515 59 203 8.0 12.0 0.00 0.01 0.00 86 1024.9
20220520032015 59 203 9.0 13.0 0.00 0.01 0.00 85 1024.8
20220520031515 59 203 9.0 14.0 0.00 0.01 0.00 85 1024.7
20220520031015 60 203 10.0 16.0 0.00 0.01 0.00 84 1024.7
20220520030515 59 203 10.0 15.0 0.00 0.01 0.00 85 1024.7
20220520030015 59 180 11.0 16.0 0.00 0.01 0.00 85 1024.6
20220520025515 60 180 11.0 16.0 0.00 0.01 0.00 85 1024.6
20220520025015 60 180 11.0 15.0 0.00 0.01 0.00 85 1024.5
20220520024515 59 180 11.0 17.0 0.00 0.01 0.00 86 1024.5
20220520024035 59 180 9.0 14.0 0.00 0.01 0.00 86 1024.4
20220520023516 59 180 9.0 15.0 0.00 0.01 0.00 86 1024.6
20220520023035 59 180 6.0 9.0 0.00 0.01 0.00 87 1024.7
20220520022515 59 203 5.0 7.0 0.00 0.01 0.00 87 1024.7
20220520022015 59 203 5.0 7.0 0.00 0.01 0.00 87 1024.8
20220520021515 59 225 4.0 6.0 0.00 0.01 0.00 86 1024.6
20220520021015 59 225 3.0 5.0 0.00 0.01 0.00 86 1024.7
20220520020515 59 225 3.0 5.0 0.00 0.01 0.00 85 1024.6
20220520020015 59 225 4.0 6.0 0.00 0.01 0.00 85 1024.7
20220520015515 59 225 3.0 5.0 0.00 0.01 0.00 84 1024.7
20220520015015 59 225 5.0 9.0 0.00 0.01 0.00 84 1024.8
20220520014516 59 225 5.0 6.0 0.00 0.01 0.00 84 1024.8
20220520014037 59 225 5.0 8.0 0.00 0.01 0.00 84 1024.8
20220520013517 59 270 5.0 8.0 0.00 0.01 0.00 86 1024.6
20220520013017 58 270 5.0 6.0 0.00 0.01 0.00 87 1024.8
20220520012517 58 293 5.0 7.0 0.00 0.01 0.00 87 1024.8
20220520012017 58 293 5.0 7.0 0.00 0.01 0.00 87 1024.7
20220520011517 59 293 5.0 7.0 0.00 0.01 0.00 85 1024.9
20220520011017 59 293 4.0 6.0 0.00 0.01 0.00 84 1024.7
20220520010517 59 293 7.0 8.0 0.00 0.01 0.00 83 1024.8
20220520010017 60 293 6.0 8.0 0.00 0.01 0.00 82 1024.8
20220520005517 60 293 4.0 7.0 0.00 0.01 0.00 81 1024.7
20220520005017 61 293 3.0 7.0 0.00 0.01 0.00 78 1024.8
20220520004517 61 270 6.0 11.0 0.00 0.01 0.00 76 1024.9
20220520004017 62 225 11.0 14.0 0.00 0.01 0.00 75 1024.7
20220520003517 62 225 10.0 14.0 0.00 0.01 0.00 75 1024.4
20220520003017 61 225 10.0 12.0 0.00 0.01 0.00 75 1024.4
20220520002517 62 225 10.0 15.0 0.00 0.01 0.00 74 1024.6
20220520002016 62 225 11.0 15.0 0.00 0.01 0.00 73 1024.6
20220520001517 63 225 13.0 16.0 0.00 0.01 0.00 70 1024.5
20220520001017 64 225 15.0 19.0 0.00 0.01 0.00 68 1024.6
20220520000516 64 225 15.0 21.0 0.00 0.01 0.00 67 1024.6
20220520000016 65 225 16.0 20.0 0.00 0.01 0.00 65 1024.6
20220519235537 65 225 15.0 20.0 0.00 0.01 0.00 65 1024.6
20220519235017 67 203 13.0 19.0 0.00 0.01 0.00 61 1024.6
20220519234517 67 203 14.0 19.0 0.00 0.01 0.00 58 1024.5
20220519234017 67 203 15.0 20.0 0.00 0.01 0.00 59 1024.5
20220519233536 66 203 14.0 21.0 0.00 0.01 0.00 61 1024.3
20220519233016 65 203 13.0 18.0 0.00 0.01 0.00 65 1024.3
20220519232536 64 203 12.0 24.0 0.00 0.01 0.00 68 1024.4
20220519232016 65 203 13.0 20.0 0.00 0.01 0.00 66 1024.4
20220519231516 65 203 11.0 19.0 0.00 0.01 0.00 65 1024.4
20220519231017 66 203 12.0 17.0 0.00 0.01 0.00 64 1024.5
20220519230516 66 203 13.0 17.0 0.00 0.01 0.00 64 1024.5
20220519230017 66 203 11.0 17.0 0.00 0.01 0.00 65 1024.6
20220519225538 66 203 11.0 15.0 0.00 0.01 0.00 68 1024.6
20220519225017 65 180 10.0 12.0 0.00 0.01 0.00 68 1024.5
20220519224536 66 180 11.0 17.0 0.00 0.01 0.00 66 1024.8
20220519224036 65 180 14.0 21.0 0.00 0.01 0.00 68 1024.9
20220519223516 64 180 14.0 19.0 0.00 0.01 0.00 69 1024.8
20220519223016 64 180 17.0 21.0 0.00 0.01 0.00 67 1024.7
20220519222536 64 180 17.0 21.0 0.00 0.01 0.00 67 1024.7
20220519222016 63 180 19.0 23.0 0.00 0.01 0.00 69 1024.6
20220519221536 63 158 11.0 23.0 0.00 0.01 0.00 72 1024.4
20220519221017 62 158 7.0 12.0 0.00 0.01 0.00 75 1024.3
20220519220516 60 158 13.0 25.0 0.00 0.01 0.00 80 1024.1
20220519220036 60 158 15.0 25.0 0.00 0.01 0.01 83 1024.1
20220519215537 61 158 11.0 21.0 0.00 0.01 0.01 79 1024.2
20220519215016 62 158 3.0 6.0 0.00 0.01 0.01 74 1024.2
20220519214516 62 158 3.0 5.0 0.00 0.01 0.01 75 1024.3
20220519214015 61 158 5.0 15.0 0.01 0.01 0.01 76 1024.1
20220519213516 60 158 7.0 15.0 0.01 0.01 0.01 78 1024.2
20220519213016 60 158 4.0 6.0 0.01 0.01 0.01 80 1024.3
20220519212516 61 158 7.0 14.0 0.01 0.01 0.01 81 1024.3
20220519212016 62 135 6.0 10.0 0.01 0.01 0.01 76 1024.4
20220519211536 62 113 8.0 10.0 0.01 0.01 0.01 75 1024.2
20220519211016 60 135 9.0 10.0 0.01 0.01 0.01 81 1024.2
20220519210516 60 113 6.0 9.0 0.01 0.01 0.01 80 1024.3
20220519210018 61 45 7.0 11.0 0.01 0.01 0.01 80 1024.5
20220519205516 61 45 11.0 13.0 0.01 0.01 0.01 78 1024.4
20220519205036 61 45 14.0 15.0 0.01 0.01 0.01 80 1024.3
20220519204515 60 23 13.0 15.0 0.01 0.01 0.01 82 1024.3
20220519204016 60 23 12.0 14.0 0.00 0.00 0.00 82 1024.5
20220519203536 60 0 11.0 14.0 0.00 0.00 0.00 82 1024.7
20220519203015 60 338 11.0 15.0 0.00 0.00 0.00 81 1025.1
20220519202516 59 315 8.0 11.0 0.00 0.00 0.00 83 1025.3
20220519202016 59 338 4.0 13.0 0.00 0.00 0.00 85 1025.2
20220519201536 59 338 5.0 9.0 0.00 0.00 0.00 85 1025.0
20220519201016 59 315 7.0 13.0 0.00 0.00 0.00 85 1024.9
20220519200515 59 338 11.0 17.0 0.00 0.00 0.00 85 1024.8
20220519200015 59 315 14.0 23.0 0.00 0.00 0.00 84 1024.7
20220519195535 59 338 14.0 22.0 0.00 0.00 0.00 84 1024.5
20220519195016 59 315 18.0 28.0 0.00 0.00 0.00 84 1024.2
20220519194515 60 315 20.0 36.0 0.00 0.00 0.00 83 1024.3
20220519194015 61 315 21.0 31.0 0.00 0.00 0.00 78 1023.9
20220519193516 63 315 23.0 39.0 0.00 0.00 0.00 72 1024.0
20220519193016 64 293 25.0 37.0 0.00 0.00 0.00 69 1023.9
20220519192515 65 293 25.0 44.0 0.00 0.00 0.00 66 1024.2
20220519192015 66 293 27.0 44.0 0.00 0.00 0.00 63 1023.9
20220519191521 68 315 30.0 52.0 0.00 0.00 0.00 60 1023.3
20220519191016 76 248 10.0 17.0 0.00 0.00 0.00 47 1023.7
20220519190516 77 225 9.0 10.0 0.00 0.00 0.00 46 1023.0
20220519190015 77 225 8.0 11.0 0.00 0.00 0.00 46 1022.8
20220519185521 77 225 10.0 11.0 0.00 0.00 0.00 46 1022.8
20220519185015 77 225 10.0 11.0 0.00 0.00 0.00 46 1022.8
20220519184516 76 225 10.0 11.0 0.00 0.00 0.00 47 1022.8
20220519184015 77 225 10.0 12.0 0.00 0.00 0.00 47 1022.8
20220519183535 77 225 10.0 12.0 0.00 0.00 0.00 47 1022.8
20220519183015 77 203 9.0 10.0 0.00 0.00 0.00 47 1022.7
20220519182515 77 203 9.0 11.0 0.00 0.00 0.00 47 1022.6
20220519182015 77 203 8.0 10.0 0.00 0.00 0.00 46 1022.5
20220519181535 77 203 7.0 8.0 0.00 0.00 0.00 46 1022.6
20220519181015 77 225 7.0 8.0 0.00 0.00 0.00 46 1022.6
20220519180515 77 203 6.0 9.0 0.00 0.00 0.00 46 1022.5
20220519180015 77 225 7.0 10.0 0.00 0.00 0.00 46 1022.6
20220519175515 77 225 7.0 10.0 0.00 0.00 0.00 45 1022.7
20220519175016 77 225 8.0 10.0 0.00 0.00 0.00 45 1022.7
20220519174516 77 225 8.0 11.0 0.00 0.00 0.00 45 1022.8
20220519174015 77 225 6.0 10.0 0.00 0.00 0.00 44 1022.7
20220519173515 77 225 5.0 8.0 0.00 0.00 0.00 44 1022.8
20220519173015 78 225 8.0 10.0 0.00 0.00 0.00 44 1022.8
20220519172535 78 225 10.0 13.0 0.00 0.00 0.00 43 1022.8
20220519172015 78 225 6.0 11.0 0.00 0.00 0.00 43 1022.8
20220519171515 78 225 9.0 13.0 0.00 0.00 0.00 42 1022.7
20220519171015 78 225 7.0 12.0 0.00 0.00 0.00 42 1022.8
20220519170519 78 203 7.0 11.0 0.00 0.00 0.00 41 1022.7
20220519170020 78 225 10.0 15.0 0.00 0.00 0.00 41 1022.7
20220519165515 78 225 11.0 16.0 0.00 0.00 0.00 41 1022.7
20220519165015 78 225 9.0 13.0 0.00 0.00 0.00 40 1022.6
20220519164515 78 203 12.0 16.0 0.00 0.00 0.00 39 1022.6
20220519164015 78 225 9.0 19.0 0.00 0.00 0.00 40 1022.4
20220519163515 78 225 7.0 13.0 0.00 0.00 0.00 40 1022.4
20220519163015 78 225 8.0 13.0 0.00 0.00 0.00 41 1022.6
20220519162515 78 225 11.0 15.0 0.00 0.00 0.00 40 1022.4
20220519162015 78 203 9.0 13.0 0.00 0.00 0.00 41 1022.4
20220519161516 78 203 7.0 15.0 0.00 0.00 0.00 41 1022.3
20220519161015 78 203 6.0 11.0 0.00 0.00 0.00 44 1022.4
20220519160515 78 180 4.0 9.0 0.00 0.00 0.00 42 1022.4
20220519160015 78 203 3.0 8.0 0.00 0.00 0.00 43 1022.6
20220519155515 78 203 4.0 8.0 0.00 0.00 0.00 42 1022.4
20220519155016 78 180 5.0 8.0 0.00 0.00 0.00 43 1022.4
20220519154535 78 180 4.0 8.0 0.00 0.00 0.00 41 1022.3
20220519154015 78 180 3.0 8.0 0.00 0.00 0.00 42 1022.3
20220519153515 78 180 4.0 9.0 0.00 0.00 0.00 42 1022.4
20220519153015 78 180 5.0 9.0 0.00 0.00 0.00 42 1022.4
20220519152536 78 180 6.0 11.0 0.00 0.00 0.00 40 1022.4
20220519152015 78 180 6.0 15.0 0.00 0.00 0.00 40 1022.3
20220519151515 78 180 4.0 10.0 0.00 0.00 0.00 40 1022.5
20220519151015 78 180 6.0 12.0 0.00 0.00 0.00 41 1022.4
20220519150515 78 203 7.0 11.0 0.00 0.00 0.00 40 1022.6
20220519150015 78 225 8.0 13.0 0.00 0.00 0.00 39 1022.7
20220519145537 78 225 7.0 11.0 0.00 0.00 0.00 37 1022.7
20220519145017 78 203 6.0 12.0 0.00 0.00 0.00 38 1022.6
20220519144538 77 225 7.0 12.0 0.00 0.00 0.00 41 1022.7
20220519144017 77 180 5.0 11.0 0.00 0.00 0.00 39 1022.7
20220519143522 77 225 9.0 14.0 0.00 0.00 0.00 39 1022.7
20220519143017 78 203 6.0 9.0 0.00 0.00 0.00 39 1022.9
20220519142517 78 248 7.0 11.0 0.00 0.00 0.00 39 1022.9
20220519142016 78 225 6.0 12.0 0.00 0.00 0.00 40 1022.9
20220519141517 78 225 9.0 13.0 0.00 0.00 0.00 37 1023.0
20220519141017 77 203 6.0 11.0 0.00 0.00 0.00 39 1023.1
20220519140537 78 203 6.0 13.0 0.00 0.00 0.00 36 1023.4
20220519140017 78 203 7.0 10.0 0.00 0.00 0.00 40 1023.3
20220519135517 78 203 5.0 11.0 0.00 0.00 0.00 38 1023.4
20220519135017 78 248 3.0 12.0 0.00 0.00 0.00 39 1023.4
20220519134617 78 248 4.0 10.0 0.00 0.00 0.00 40 1023.4
20220519134016 78 180 3.0 9.0 0.00 0.00 0.00 42 1023.4
20220519133515 77 135 2.0 5.0 0.00 0.00 0.00 43 1023.4
20220519133017 77 158 3.0 8.0 0.00 0.00 0.00 41 1023.4
20220519132537 77 158 3.0 12.0 0.00 0.00 0.00 41 1023.6
20220519132017 77 158 4.0 12.0 0.00 0.00 0.00 42 1023.7
20220519131517 77 180 3.0 9.0 0.00 0.00 0.00 44 1023.7
20220519131017 76 180 4.0 9.0 0.00 0.00 0.00 43 1023.7
20220519130516 76 180 2.0 4.0 0.00 0.00 0.00 44 1023.7
20220519130017 76 203 3.0 9.0 0.00 0.00 0.00 45 1023.8
20220519125517 75 180 3.0 7.0 0.00 0.00 0.00 45 1023.7
20220519125016 75 90 3.0 9.0 0.00 0.00 0.00 46 1023.8
20220519124517 75 90 3.0 7.0 0.00 0.00 0.00 46 1024.0
20220519124016 74 203 2.0 6.0 0.00 0.00 0.00 48 1023.8
20220519123517 74 135 3.0 7.0 0.00 0.00 0.00 46 1023.9
20220519123016 74 135 3.0 8.0 0.00 0.00 0.00 47 1023.9
20220519122516 74 135 3.0 6.0 0.00 0.00 0.00 46 1024.0
20220519122017 74 135 4.0 10.0 0.00 0.00 0.00 45 1024.1
20220519121516 74 135 3.0 8.0 0.00 0.00 0.00 47 1024.2
20220519121016 74 135 4.0 10.0 0.00 0.00 0.00 49 1024.2
20220519120536 74 135 4.0 10.0 0.00 0.00 0.00 46 1024.2
20220519120016 74 180 5.0 12.0 0.00 0.00 0.00 47 1024.2
20220519115516 73 135 4.0 8.0 0.00 0.00 0.00 47 1024.1
20220519115016 73 135 3.0 7.0 0.00 0.00 0.00 48 1024.1
20220519114516 73 158 2.0 8.0 0.00 0.00 0.00 49 1024.1
20220519114016 73 135 3.0 8.0 0.00 0.00 0.00 46 1024.3
20220519113536 72 135 3.0 8.0 0.00 0.00 0.00 48 1024.2
20220519113017 72 135 4.0 9.0 0.00 0.00 0.00 49 1024.2
20220519112516 72 158 4.0 10.0 0.00 0.00 0.00 48 1024.1
20220519112037 72 158 4.0 14.0 0.00 0.00 0.00 48 1024.2
20220519111516 72 135 3.0 8.0 0.00 0.00 0.00 49 1024.2
20220519111016 71 135 4.0 10.0 0.00 0.00 0.00 47 1024.3
20220519110516 71 158 4.0 11.0 0.00 0.00 0.00 49 1024.4
20220519110016 71 180 6.0 13.0 0.00 0.00 0.00 50 1024.4
20220519105516 71 135 4.0 9.0 0.00 0.00 0.00 48 1024.4
20220519105016 71 158 5.0 13.0 0.00 0.00 0.00 49 1024.5
20220519104516 71 180 4.0 14.0 0.00 0.00 0.00 51 1024.7
20220519104017 71 180 5.0 12.0 0.00 0.00 0.00 52 1024.7
20220519103516 70 180 4.0 8.0 0.00 0.00 0.00 53 1024.6
20220519103016 70 135 4.0 11.0 0.00 0.00 0.00 54 1024.6
20220519102516 69 158 7.0 15.0 0.00 0.00 0.00 53 1024.6
20220519102016 69 158 5.0 14.0 0.00 0.00 0.00 55 1024.6